sensor_id;sensor_type;location;lat;lon;timestamp;temperature;humidity
4604;DHT22;2314;48.272;11.562;2023-10-09T00:02:14;12.10;99.90
4604;DHT22;2314;48.272;11.562;2023-10-09T00:04:42;12.10;99.90
4604;DHT22;2314;48.272;11.562;2023-10-09T00:07:10;12.00;99.90
4604;DHT22;2314;48.272;11.562;2023-10-09T00:09:38;12.10;99.90
4604;DHT22;2314;48.272;11.562;2023-10-09T00:12:15;12.10;99.90
4604;DHT22;2314;48.272;11.562;2023-10-09T00:14:48;12.10;99.90
4604;DHT22;2314;48.272;11.562;2023-10-09T00:17:17;12.10;99.90
4604;DHT22;2314;48.272;11.562;2023-10-09T00:19:45;12.20;99.90
4604;DHT22;2314;48.272;11.562;2023-10-09T00:22:15;12.20;99.90
4604;DHT22;2314;48.272;11.562;2023-10-09T00:24:52;12.30;99.90
4604;DHT22;2314;48.272;11.562;2023-10-09T00:27:37;12.30;99.90
4604;DHT22;2314;48.272;11.562;2023-10-09T00:30:08;12.30;99.90
4604;DHT22;2314;48.272;11.562;2023-10-09T00:32:41;12.30;99.90
4604;DHT22;2314;48.272;11.562;2023-10-09T00:35:24;12.40;99.90
4604;DHT22;2314;48.272;11.562;2023-10-09T00:38:12;12.40;99.90
4604;DHT22;2314;48.272;11.562;2023-10-09T00:40:49;12.50;99.90
4604;DHT22;2314;48.272;11.562;2023-10-09T00:43:23;12.50;99.90
4604;DHT22;2314;48.272;11.562;2023-10-09T00:45:54;12.50;99.90
4604;DHT22;2314;48.272;11.562;2023-10-09T00:48:23;12.50;99.90
4604;DHT22;2314;48.272;11.562;2023-10-09T00:50:56;12.50;99.90
4604;DHT22;2314;48.272;11.562;2023-10-09T00:53:26;12.60;99.90
4604;DHT22;2314;48.272;11.562;2023-10-09T00:55:59;12.50;99.90
4604;DHT22;2314;48.272;11.562;2023-10-09T00:58:36;12.60;99.90
4604;DHT22;2314;48.272;11.562;2023-10-09T01:01:05;12.60;99.90
4604;DHT22;2314;48.272;11.562;2023-10-09T01:03:42;12.60;99.90
4604;DHT22;2314;48.272;11.562;2023-10-09T01:06:11;12.50;99.90
4604;DHT22;2314;48.272;11.562;2023-10-09T01:08:46;12.50;99.90
4604;DHT22;2314;48.272;11.562;2023-10-09T01:11:22;12.50;99.90
4604;DHT22;2314;48.272;11.562;2023-10-09T01:13:55;12.50;99.90
4604;DHT22;2314;48.272;11.562;2023-10-09T01:16:38;12.40;99.90
4604;DHT22;2314;48.272;11.562;2023-10-09T01:19:09;12.40;99.90
4604;DHT22;2314;48.272;11.562;2023-10-09T01:21:45;12.40;99.90
4604;DHT22;2314;48.272;11.562;2023-10-09T01:24:15;12.40;99.90
4604;DHT22;2314;48.272;11.562;2023-10-09T01:26:45;12.40;99.90
4604;DHT22;2314;48.272;11.562;2023-10-09T01:29:14;12.40;99.90
4604;DHT22;2314;48.272;11.562;2023-10-09T01:31:45;12.30;99.90
4604;DHT22;2314;48.272;11.562;2023-10-09T01:34:21;12.30;99.90
4604;DHT22;2314;48.272;11.562;2023-10-09T01:37:00;12.20;99.90
4604;DHT22;2314;48.272;11.562;2023-10-09T01:39:32;12.20;99.90
4604;DHT22;2314;48.272;11.562;2023-10-09T01:42:05;12.20;99.90
4604;DHT22;2314;48.272;11.562;2023-10-09T01:44:33;12.20;99.90
4604;DHT22;2314;48.272;11.562;2023-10-09T01:47:01;12.20;99.90
4604;DHT22;2314;48.272;11.562;2023-10-09T01:49:33;12.20;99.90
4604;DHT22;2314;48.272;11.562;2023-10-09T01:52:02;12.10;99.90
4604;DHT22;2314;48.272;11.562;2023-10-09T01:54:36;12.10;99.90
4604;DHT22;2314;48.272;11.562;2023-10-09T01:57:04;12.00;99.90
4604;DHT22;2314;48.272;11.562;2023-10-09T01:59:38;12.00;99.90
4604;DHT22;2314;48.272;11.562;2023-10-09T02:02:10;12.00;99.90
4604;DHT22;2314;48.272;11.562;2023-10-09T02:04:57;12.00;99.90
4604;DHT22;2314;48.272;11.562;2023-10-09T02:07:36;12.00;99.90
4604;DHT22;2314;48.272;11.562;2023-10-09T02:10:19;11.90;99.90
4604;DHT22;2314;48.272;11.562;2023-10-09T02:12:58;11.90;99.90
4604;DHT22;2314;48.272;11.562;2023-10-09T02:15:26;12.00;99.90
4604;DHT22;2314;48.272;11.562;2023-10-09T02:18:17;12.00;99.90
4604;DHT22;2314;48.272;11.562;2023-10-09T02:20:53;12.00;99.90
4604;DHT22;2314;48.272;11.562;2023-10-09T02:23:26;12.00;99.90
4604;DHT22;2314;48.272;11.562;2023-10-09T02:26:07;12.10;99.90
4604;DHT22;2314;48.272;11.562;2023-10-09T02:28:42;12.10;99.90
4604;DHT22;2314;48.272;11.562;2023-10-09T02:31:10;12.10;99.90
4604;DHT22;2314;48.272;11.562;2023-10-09T02:33:38;12.10;99.90
4604;DHT22;2314;48.272;11.562;2023-10-09T02:36:06;12.10;99.90
4604;DHT22;2314;48.272;11.562;2023-10-09T02:38:34;12.10;99.90
4604;DHT22;2314;48.272;11.562;2023-10-09T02:41:04;12.10;99.90
4604;DHT22;2314;48.272;11.562;2023-10-09T02:43:47;12.10;99.90
4604;DHT22;2314;48.272;11.562;2023-10-09T02:46:17;12.00;99.90
4604;DHT22;2314;48.272;11.562;2023-10-09T02:48:46;12.00;99.90
4604;DHT22;2314;48.272;11.562;2023-10-09T02:51:19;11.90;99.90
4604;DHT22;2314;48.272;11.562;2023-10-09T02:53:59;11.90;99.90
4604;DHT22;2314;48.272;11.562;2023-10-09T02:56:34;11.80;99.90
4604;DHT22;2314;48.272;11.562;2023-10-09T02:59:05;11.70;99.90
4604;DHT22;2314;48.272;11.562;2023-10-09T03:01:33;11.70;99.90
4604;DHT22;2314;48.272;11.562;2023-10-09T03:04:03;11.60;99.90
4604;DHT22;2314;48.272;11.562;2023-10-09T03:06:32;11.60;99.90
4604;DHT22;2314;48.272;11.562;2023-10-09T03:09:00;11.60;99.90
4604;DHT22;2314;48.272;11.562;2023-10-09T03:11:42;11.50;99.90
4604;DHT22;2314;48.272;11.562;2023-10-09T03:14:11;11.50;99.90
4604;DHT22;2314;48.272;11.562;2023-10-09T03:16:38;11.40;99.90
4604;DHT22;2314;48.272;11.562;2023-10-09T03:19:05;11.40;99.90
4604;DHT22;2314;48.272;11.562;2023-10-09T03:21:32;11.40;99.90
4604;DHT22;2314;48.272;11.562;2023-10-09T03:23:59;11.40;99.90
4604;DHT22;2314;48.272;11.562;2023-10-09T03:26:30;11.30;99.90
4604;DHT22;2314;48.272;11.562;2023-10-09T03:28:57;11.30;99.90
4604;DHT22;2314;48.272;11.562;2023-10-09T03:31:27;11.30;99.90
4604;DHT22;2314;48.272;11.562;2023-10-09T03:33:56;11.30;99.90
4604;DHT22;2314;48.272;11.562;2023-10-09T03:36:23;11.30;99.90
4604;DHT22;2314;48.272;11.562;2023-10-09T03:38:52;11.20;99.90
4604;DHT22;2314;48.272;11.562;2023-10-09T03:41:20;11.20;99.90
4604;DHT22;2314;48.272;11.562;2023-10-09T03:43:49;11.20;99.90
4604;DHT22;2314;48.272;11.562;2023-10-09T03:46:16;11.20;99.90
4604;DHT22;2314;48.272;11.562;2023-10-09T03:48:53;11.10;99.90
4604;DHT22;2314;48.272;11.562;2023-10-09T03:51:22;11.10;99.90
4604;DHT22;2314;48.272;11.562;2023-10-09T03:53:52;11.10;99.90
4604;DHT22;2314;48.272;11.562;2023-10-09T03:56:19;11.10;99.90
4604;DHT22;2314;48.272;11.562;2023-10-09T03:58:48;11.10;99.90
4604;DHT22;2314;48.272;11.562;2023-10-09T04:01:17;11.10;99.90
4604;DHT22;2314;48.272;11.562;2023-10-09T04:03:49;11.10;99.90
4604;DHT22;2314;48.272;11.562;2023-10-09T04:06:21;11.10;99.90
4604;DHT22;2314;48.272;11.562;2023-10-09T04:08:48;11.10;99.90
4604;DHT22;2314;48.272;11.562;2023-10-09T04:11:17;11.10;99.90
4604;DHT22;2314;48.272;11.562;2023-10-09T04:13:44;11.10;99.90
4604;DHT22;2314;48.272;11.562;2023-10-09T04:16:12;11.10;99.90
4604;DHT22;2314;48.272;11.562;2023-10-09T04:19:00;11.10;99.90
4604;DHT22;2314;48.272;11.562;2023-10-09T04:21:33;11.00;99.90
4604;DHT22;2314;48.272;11.562;2023-10-09T04:24:03;11.00;99.90
4604;DHT22;2314;48.272;11.562;2023-10-09T04:26:48;11.00;99.90
4604;DHT22;2314;48.272;11.562;2023-10-09T04:29:22;11.00;99.90
4604;DHT22;2314;48.272;11.562;2023-10-09T04:31:53;11.00;99.90
4604;DHT22;2314;48.272;11.562;2023-10-09T04:34:21;11.00;99.90
4604;DHT22;2314;48.272;11.562;2023-10-09T04:36:49;11.00;99.90
4604;DHT22;2314;48.272;11.562;2023-10-09T04:39:22;11.00;99.90
4604;DHT22;2314;48.272;11.562;2023-10-09T04:42:12;11.00;99.90
4604;DHT22;2314;48.272;11.562;2023-10-09T04:44:52;11.00;99.90
4604;DHT22;2314;48.272;11.562;2023-10-09T04:47:37;11.00;99.90
4604;DHT22;2314;48.272;11.562;2023-10-09T04:50:05;11.00;99.90
4604;DHT22;2314;48.272;11.562;2023-10-09T04:52:35;11.00;99.90
4604;DHT22;2314;48.272;11.562;2023-10-09T04:55:17;11.10;99.90
4604;DHT22;2314;48.272;11.562;2023-10-09T04:57:47;11.10;99.90
4604;DHT22;2314;48.272;11.562;2023-10-09T05:00:28;11.10;99.90
4604;DHT22;2314;48.272;11.562;2023-10-09T05:03:27;11.10;99.90
4604;DHT22;2314;48.272;11.562;2023-10-09T05:05:55;11.20;99.90
4604;DHT22;2314;48.272;11.562;2023-10-09T05:08:27;11.20;99.90
4604;DHT22;2314;48.272;11.562;2023-10-09T05:10:59;11.20;99.90
4604;DHT22;2314;48.272;11.562;2023-10-09T05:13:41;11.30;99.90
4604;DHT22;2314;48.272;11.562;2023-10-09T05:16:23;11.30;99.90
4604;DHT22;2314;48.272;11.562;2023-10-09T05:18:52;11.20;99.90
4604;DHT22;2314;48.272;11.562;2023-10-09T05:21:22;11.20;99.90
4604;DHT22;2314;48.272;11.562;2023-10-09T05:24:12;11.20;99.90
4604;DHT22;2314;48.272;11.562;2023-10-09T05:26:49;11.20;99.90
4604;DHT22;2314;48.272;11.562;2023-10-09T05:29:20;11.20;99.90
4604;DHT22;2314;48.272;11.562;2023-10-09T05:32:00;11.30;99.90
4604;DHT22;2314;48.272;11.562;2023-10-09T05:34:31;11.30;99.90
4604;DHT22;2314;48.272;11.562;2023-10-09T05:37:22;11.30;99.90
4604;DHT22;2314;48.272;11.562;2023-10-09T05:39:51;11.30;99.90
4604;DHT22;2314;48.272;11.562;2023-10-09T05:42:46;11.30;99.90
4604;DHT22;2314;48.272;11.562;2023-10-09T05:45:23;11.30;99.90
4604;DHT22;2314;48.272;11.562;2023-10-09T05:48:07;11.30;99.90
4604;DHT22;2314;48.272;11.562;2023-10-09T05:51:04;11.30;99.90
4604;DHT22;2314;48.272;11.562;2023-10-09T05:53:38;11.30;99.90
4604;DHT22;2314;48.272;11.562;2023-10-09T05:56:20;11.30;99.90
4604;DHT22;2314;48.272;11.562;2023-10-09T05:59:04;11.40;99.90
4604;DHT22;2314;48.272;11.562;2023-10-09T06:01:49;11.40;99.90
4604;DHT22;2314;48.272;11.562;2023-10-09T06:04:33;11.50;99.90
4604;DHT22;2314;48.272;11.562;2023-10-09T06:07:15;11.60;99.90
4604;DHT22;2314;48.272;11.562;2023-10-09T06:09:49;11.80;99.90
4604;DHT22;2314;48.272;11.562;2023-10-09T06:12:16;11.90;99.90
4604;DHT22;2314;48.272;11.562;2023-10-09T06:15:15;12.10;99.90
4604;DHT22;2314;48.272;11.562;2023-10-09T06:18:16;12.40;99.90
4604;DHT22;2314;48.272;11.562;2023-10-09T06:20:53;12.60;99.90
4604;DHT22;2314;48.272;11.562;2023-10-09T06:23:35;12.80;99.90
4604;DHT22;2314;48.272;11.562;2023-10-09T06:26:34;13.10;99.90
4604;DHT22;2314;48.272;11.562;2023-10-09T06:29:02;13.30;99.90
4604;DHT22;2314;48.272;11.562;2023-10-09T06:31:42;13.50;99.90
4604;DHT22;2314;48.272;11.562;2023-10-09T06:34:27;13.70;99.90
4604;DHT22;2314;48.272;11.562;2023-10-09T06:37:01;13.90;99.90
4604;DHT22;2314;48.272;11.562;2023-10-09T06:39:31;14.20;99.90
4604;DHT22;2314;48.272;11.562;2023-10-09T06:42:36;14.40;99.90
4604;DHT22;2314;48.272;11.562;2023-10-09T06:45:11;14.60;99.90
4604;DHT22;2314;48.272;11.562;2023-10-09T06:47:42;14.80;99.90
4604;DHT22;2314;48.272;11.562;2023-10-09T06:50:09;14.90;99.90
4604;DHT22;2314;48.272;11.562;2023-10-09T06:52:51;15.00;99.90
4604;DHT22;2314;48.272;11.562;2023-10-09T06:55:45;15.10;99.90
4604;DHT22;2314;48.272;11.562;2023-10-09T06:58:14;15.20;99.90
4604;DHT22;2314;48.272;11.562;2023-10-09T07:00:49;15.30;99.90
4604;DHT22;2314;48.272;11.562;2023-10-09T07:03:45;15.30;99.90
4604;DHT22;2314;48.272;11.562;2023-10-09T07:06:19;15.40;99.90
4604;DHT22;2314;48.272;11.562;2023-10-09T07:09:12;15.50;99.90
4604;DHT22;2314;48.272;11.562;2023-10-09T07:11:45;15.60;99.90
4604;DHT22;2314;48.272;11.562;2023-10-09T07:14:35;15.70;99.90
4604;DHT22;2314;48.272;11.562;2023-10-09T07:17:21;15.90;99.90
4604;DHT22;2314;48.272;11.562;2023-10-09T07:19:49;16.10;99.90
4604;DHT22;2314;48.272;11.562;2023-10-09T07:22:39;16.30;99.90
4604;DHT22;2314;48.272;11.562;2023-10-09T07:25:18;16.50;99.90
4604;DHT22;2314;48.272;11.562;2023-10-09T07:28:10;16.60;99.90
4604;DHT22;2314;48.272;11.562;2023-10-09T07:31:02;17.00;99.90
4604;DHT22;2314;48.272;11.562;2023-10-09T07:33:31;17.20;99.90
4604;DHT22;2314;48.272;11.562;2023-10-09T07:36:17;17.40;99.90
4604;DHT22;2314;48.272;11.562;2023-10-09T07:38:56;17.60;99.90
4604;DHT22;2314;48.272;11.562;2023-10-09T07:41:30;17.90;99.90
4604;DHT22;2314;48.272;11.562;2023-10-09T07:44:05;18.10;99.90
4604;DHT22;2314;48.272;11.562;2023-10-09T07:47:02;18.20;99.90
4604;DHT22;2314;48.272;11.562;2023-10-09T07:49:45;18.30;99.90
4604;DHT22;2314;48.272;11.562;2023-10-09T07:52:20;18.40;99.90
4604;DHT22;2314;48.272;11.562;2023-10-09T07:54:51;18.50;99.90
4604;DHT22;2314;48.272;11.562;2023-10-09T07:57:28;18.70;99.90
4604;DHT22;2314;48.272;11.562;2023-10-09T08:00:06;18.90;99.90
4604;DHT22;2314;48.272;11.562;2023-10-09T08:02:54;19.10;99.90
4604;DHT22;2314;48.272;11.562;2023-10-09T08:05:27;19.30;99.90
4604;DHT22;2314;48.272;11.562;2023-10-09T08:07:59;19.50;99.90
4604;DHT22;2314;48.272;11.562;2023-10-09T09:35:13;21.80;99.90
4604;DHT22;2314;48.272;11.562;2023-10-09T09:37:52;21.80;99.90
4604;DHT22;2314;48.272;11.562;2023-10-09T09:40:20;21.90;99.90
4604;DHT22;2314;48.272;11.562;2023-10-09T09:42:57;22.00;99.90
4604;DHT22;2314;48.272;11.562;2023-10-09T09:45:32;22.20;99.90
4604;DHT22;2314;48.272;11.562;2023-10-09T09:48:02;22.30;99.90
4604;DHT22;2314;48.272;11.562;2023-10-09T09:50:33;22.40;99.90
4604;DHT22;2314;48.272;11.562;2023-10-09T09:53:08;22.50;99.90
4604;DHT22;2314;48.272;11.562;2023-10-09T09:55:38;22.50;99.90
4604;DHT22;2314;48.272;11.562;2023-10-09T09:58:11;22.60;99.90
4604;DHT22;2314;48.272;11.562;2023-10-09T10:00:45;22.60;99.90
4604;DHT22;2314;48.272;11.562;2023-10-09T10:03:20;22.60;99.90
4604;DHT22;2314;48.272;11.562;2023-10-09T10:05:51;22.50;99.90
4604;DHT22;2314;48.272;11.562;2023-10-09T10:08:22;22.60;99.90
4604;DHT22;2314;48.272;11.562;2023-10-09T10:10:57;22.50;99.90
4604;DHT22;2314;48.272;11.562;2023-10-09T10:13:55;22.50;99.90
4604;DHT22;2314;48.272;11.562;2023-10-09T10:16:30;22.60;99.90
4604;DHT22;2314;48.272;11.562;2023-10-09T10:19:02;22.70;99.90
4604;DHT22;2314;48.272;11.562;2023-10-09T10:21:49;22.70;99.20
4604;DHT22;2314;48.272;11.562;2023-10-09T10:24:42;22.70;99.20
4604;DHT22;2314;48.272;11.562;2023-10-09T10:27:20;22.80;97.80
4604;DHT22;2314;48.272;11.562;2023-10-09T10:30:28;22.80;97.10
4604;DHT22;2314;48.272;11.562;2023-10-09T10:33:03;22.90;98.60
4604;DHT22;2314;48.272;11.562;2023-10-09T10:35:39;23.00;98.00
4604;DHT22;2314;48.272;11.562;2023-10-09T10:38:27;23.10;95.90
4604;DHT22;2314;48.272;11.562;2023-10-09T10:41:22;23.10;95.70
4604;DHT22;2314;48.272;11.562;2023-10-09T10:43:49;23.10;97.40
4604;DHT22;2314;48.272;11.562;2023-10-09T10:46:46;23.10;96.20
4604;DHT22;2314;48.272;11.562;2023-10-09T10:49:18;22.90;95.60
4604;DHT22;2314;48.272;11.562;2023-10-09T10:51:47;22.90;95.70
4604;DHT22;2314;48.272;11.562;2023-10-09T10:54:28;22.90;97.00
4604;DHT22;2314;48.272;11.562;2023-10-09T10:57:35;23.00;97.20
4604;DHT22;2314;48.272;11.562;2023-10-09T11:00:21;23.10;96.20
4604;DHT22;2314;48.272;11.562;2023-10-09T11:03:06;23.30;96.90
4604;DHT22;2314;48.272;11.562;2023-10-09T11:05:45;23.50;95.40
4604;DHT22;2314;48.272;11.562;2023-10-09T11:08:17;23.70;96.20
4604;DHT22;2314;48.272;11.562;2023-10-09T11:10:51;23.90;96.70
4604;DHT22;2314;48.272;11.562;2023-10-09T11:13:22;24.20;95.80
4604;DHT22;2314;48.272;11.562;2023-10-09T11:16:00;24.30;94.20
4604;DHT22;2314;48.272;11.562;2023-10-09T11:18:49;24.30;93.50
4604;DHT22;2314;48.272;11.562;2023-10-09T11:21:17;24.50;94.80
4604;DHT22;2314;48.272;11.562;2023-10-09T11:23:57;24.50;92.40
4604;DHT22;2314;48.272;11.562;2023-10-09T11:26:26;24.40;92.60
4604;DHT22;2314;48.272;11.562;2023-10-09T11:29:09;24.20;93.50
4604;DHT22;2314;48.272;11.562;2023-10-09T11:31:40;24.30;95.80
4604;DHT22;2314;48.272;11.562;2023-10-09T11:34:20;24.20;94.80
4604;DHT22;2314;48.272;11.562;2023-10-09T11:36:56;24.00;93.10
4604;DHT22;2314;48.272;11.562;2023-10-09T11:39:28;23.90;93.50
4604;DHT22;2314;48.272;11.562;2023-10-09T11:42:06;23.70;93.40
4604;DHT22;2314;48.272;11.562;2023-10-09T11:44:38;23.70;94.60
4604;DHT22;2314;48.272;11.562;2023-10-09T11:47:07;23.50;92.60
4604;DHT22;2314;48.272;11.562;2023-10-09T11:49:51;23.50;94.50
4604;DHT22;2314;48.272;11.562;2023-10-09T11:52:55;23.40;94.60
4604;DHT22;2314;48.272;11.562;2023-10-09T11:55:40;23.40;95.00
4604;DHT22;2314;48.272;11.562;2023-10-09T11:58:08;23.40;93.90
4604;DHT22;2314;48.272;11.562;2023-10-09T12:00:35;23.30;94.70
4604;DHT22;2314;48.272;11.562;2023-10-09T12:03:12;23.30;93.90
4604;DHT22;2314;48.272;11.562;2023-10-09T12:05:42;23.20;93.10
4604;DHT22;2314;48.272;11.562;2023-10-09T12:08:10;23.10;95.10
4604;DHT22;2314;48.272;11.562;2023-10-09T12:10:41;23.10;95.40
4604;DHT22;2314;48.272;11.562;2023-10-09T12:13:09;23.20;95.50
4604;DHT22;2314;48.272;11.562;2023-10-09T12:15:37;23.30;97.40
4604;DHT22;2314;48.272;11.562;2023-10-09T12:18:07;23.30;95.40
4604;DHT22;2314;48.272;11.562;2023-10-09T12:20:41;23.20;96.50
4604;DHT22;2314;48.272;11.562;2023-10-09T12:23:15;23.10;94.80
4604;DHT22;2314;48.272;11.562;2023-10-09T12:25:42;23.00;96.70
4604;DHT22;2314;48.272;11.562;2023-10-09T12:28:12;22.80;96.50
4604;DHT22;2314;48.272;11.562;2023-10-09T12:30:40;22.60;96.70
4604;DHT22;2314;48.272;11.562;2023-10-09T12:33:08;22.50;97.00
4604;DHT22;2314;48.272;11.562;2023-10-09T12:35:38;22.30;96.60
4604;DHT22;2314;48.272;11.562;2023-10-09T12:38:07;22.10;96.80
4604;DHT22;2314;48.272;11.562;2023-10-09T12:40:38;22.00;97.50
4604;DHT22;2314;48.272;11.562;2023-10-09T12:43:07;21.80;97.30
4604;DHT22;2314;48.272;11.562;2023-10-09T12:45:42;21.70;96.20
4604;DHT22;2314;48.272;11.562;2023-10-09T12:48:10;21.60;97.70
4604;DHT22;2314;48.272;11.562;2023-10-09T12:50:38;21.50;96.70
4604;DHT22;2314;48.272;11.562;2023-10-09T12:53:10;21.40;98.60
4604;DHT22;2314;48.272;11.562;2023-10-09T12:55:43;21.40;98.20
4604;DHT22;2314;48.272;11.562;2023-10-09T12:58:11;21.40;97.90
4604;DHT22;2314;48.272;11.562;2023-10-09T13:00:42;21.40;98.90
4604;DHT22;2314;48.272;11.562;2023-10-09T13:03:15;21.30;99.70
4604;DHT22;2314;48.272;11.562;2023-10-09T13:05:47;21.30;99.90
4604;DHT22;2314;48.272;11.562;2023-10-09T13:08:23;21.20;99.90
4604;DHT22;2314;48.272;11.562;2023-10-09T13:11:01;21.10;99.90
4604;DHT22;2314;48.272;11.562;2023-10-09T13:13:36;21.10;99.90
4604;DHT22;2314;48.272;11.562;2023-10-09T13:16:13;21.00;99.90
4604;DHT22;2314;48.272;11.562;2023-10-09T13:18:48;20.90;99.90
4604;DHT22;2314;48.272;11.562;2023-10-09T13:21:19;21.00;99.90
4604;DHT22;2314;48.272;11.562;2023-10-09T13:23:47;21.00;99.90
4604;DHT22;2314;48.272;11.562;2023-10-09T13:26:16;21.00;99.90
4604;DHT22;2314;48.272;11.562;2023-10-09T13:28:48;20.90;99.90
4604;DHT22;2314;48.272;11.562;2023-10-09T13:31:17;20.90;99.90
4604;DHT22;2314;48.272;11.562;2023-10-09T13:33:47;20.80;99.90
4604;DHT22;2314;48.272;11.562;2023-10-09T13:36:15;20.70;99.90
4604;DHT22;2314;48.272;11.562;2023-10-09T13:38:52;20.60;99.90
4604;DHT22;2314;48.272;11.562;2023-10-09T13:41:20;20.50;99.90
4604;DHT22;2314;48.272;11.562;2023-10-09T13:43:47;20.20;99.90
4604;DHT22;2314;48.272;11.562;2023-10-09T13:46:18;19.80;99.90
4604;DHT22;2314;48.272;11.562;2023-10-09T13:48:45;19.30;99.90
4604;DHT22;2314;48.272;11.562;2023-10-09T13:51:15;18.80;99.90
4604;DHT22;2314;48.272;11.562;2023-10-09T13:53:44;18.40;99.90
4604;DHT22;2314;48.272;11.562;2023-10-09T13:56:15;18.10;99.90
4604;DHT22;2314;48.272;11.562;2023-10-09T13:58:45;17.90;99.90
4604;DHT22;2314;48.272;11.562;2023-10-09T14:01:12;17.70;99.90
4604;DHT22;2314;48.272;11.562;2023-10-09T14:03:47;17.50;99.90
4604;DHT22;2314;48.272;11.562;2023-10-09T14:06:18;17.40;99.90
4604;DHT22;2314;48.272;11.562;2023-10-09T14:08:56;17.40;99.90
4604;DHT22;2314;48.272;11.562;2023-10-09T14:11:24;17.20;99.90
4604;DHT22;2314;48.272;11.562;2023-10-09T14:13:52;17.20;99.90
4604;DHT22;2314;48.272;11.562;2023-10-09T14:16:19;17.10;99.90
4604;DHT22;2314;48.272;11.562;2023-10-09T14:18:56;17.20;99.90
4604;DHT22;2314;48.272;11.562;2023-10-09T14:21:25;17.20;99.90
4604;DHT22;2314;48.272;11.562;2023-10-09T14:23:56;17.20;99.90
4604;DHT22;2314;48.272;11.562;2023-10-09T14:26:26;17.20;99.90
4604;DHT22;2314;48.272;11.562;2023-10-09T14:28:55;17.20;99.90
4604;DHT22;2314;48.272;11.562;2023-10-09T14:31:24;17.30;99.90
4604;DHT22;2314;48.272;11.562;2023-10-09T14:33:56;17.20;99.90
4604;DHT22;2314;48.272;11.562;2023-10-09T14:36:24;17.30;99.90
4604;DHT22;2314;48.272;11.562;2023-10-09T14:38:59;17.40;99.90
4604;DHT22;2314;48.272;11.562;2023-10-09T14:41:26;17.40;99.90
4604;DHT22;2314;48.272;11.562;2023-10-09T14:43:54;17.40;99.90
4604;DHT22;2314;48.272;11.562;2023-10-09T14:46:24;17.50;99.90
4604;DHT22;2314;48.272;11.562;2023-10-09T14:48:52;17.50;99.90
4604;DHT22;2314;48.272;11.562;2023-10-09T14:51:22;17.50;99.90
4604;DHT22;2314;48.272;11.562;2023-10-09T14:53:56;17.60;99.90
4604;DHT22;2314;48.272;11.562;2023-10-09T14:56:28;17.60;99.90
4604;DHT22;2314;48.272;11.562;2023-10-09T14:58:56;17.60;99.90
4604;DHT22;2314;48.272;11.562;2023-10-09T15:01:24;17.60;99.90
4604;DHT22;2314;48.272;11.562;2023-10-09T15:03:55;17.60;99.90
4604;DHT22;2314;48.272;11.562;2023-10-09T15:08:53;17.70;99.90
4604;DHT22;2314;48.272;11.562;2023-10-09T15:11:24;17.70;99.90
4604;DHT22;2314;48.272;11.562;2023-10-09T15:13:54;17.70;99.90
4604;DHT22;2314;48.272;11.562;2023-10-09T15:16:23;17.70;99.90
4604;DHT22;2314;48.272;11.562;2023-10-09T15:18:53;17.70;99.90
4604;DHT22;2314;48.272;11.562;2023-10-09T15:21:24;17.70;99.90
4604;DHT22;2314;48.272;11.562;2023-10-09T15:23:55;17.70;99.90
4604;DHT22;2314;48.272;11.562;2023-10-09T15:26:23;17.80;99.90
4604;DHT22;2314;48.272;11.562;2023-10-09T15:28:50;17.70;99.90
4604;DHT22;2314;48.272;11.562;2023-10-09T15:31:18;17.80;99.90
4604;DHT22;2314;48.272;11.562;2023-10-09T15:33:47;17.70;99.90
4604;DHT22;2314;48.272;11.562;2023-10-09T15:36:17;17.70;99.90
4604;DHT22;2314;48.272;11.562;2023-10-09T15:38:47;17.70;99.90
4604;DHT22;2314;48.272;11.562;2023-10-09T15:41:15;17.70;99.90
4604;DHT22;2314;48.272;11.562;2023-10-09T15:43:43;17.60;99.90
4604;DHT22;2314;48.272;11.562;2023-10-09T15:46:11;17.60;99.90
4604;DHT22;2314;48.272;11.562;2023-10-09T15:48:41;17.70;99.90
4604;DHT22;2314;48.272;11.562;2023-10-09T15:51:12;17.60;99.90
4604;DHT22;2314;48.272;11.562;2023-10-09T15:53:41;17.60;99.90
4604;DHT22;2314;48.272;11.562;2023-10-09T15:56:10;17.60;99.90
4604;DHT22;2314;48.272;11.562;2023-10-09T15:58:39;17.60;99.90
4604;DHT22;2314;48.272;11.562;2023-10-09T16:01:09;17.60;99.90
4604;DHT22;2314;48.272;11.562;2023-10-09T16:03:39;17.60;99.90
4604;DHT22;2314;48.272;11.562;2023-10-09T16:06:10;17.70;99.90
4604;DHT22;2314;48.272;11.562;2023-10-09T16:08:39;17.70;99.90
4604;DHT22;2314;48.272;11.562;2023-10-09T16:11:07;17.70;99.90
4604;DHT22;2314;48.272;11.562;2023-10-09T16:13:36;17.70;99.90
4604;DHT22;2314;48.272;11.562;2023-10-09T16:16:04;17.70;99.90
4604;DHT22;2314;48.272;11.562;2023-10-09T16:18:33;17.60;99.90
4604;DHT22;2314;48.272;11.562;2023-10-09T16:21:01;17.60;99.90
4604;DHT22;2314;48.272;11.562;2023-10-09T16:23:30;17.60;99.90
4604;DHT22;2314;48.272;11.562;2023-10-09T16:25:57;17.60;99.90
4604;DHT22;2314;48.272;11.562;2023-10-09T16:28:26;17.50;99.90
4604;DHT22;2314;48.272;11.562;2023-10-09T16:30:55;17.50;99.90
4604;DHT22;2314;48.272;11.562;2023-10-09T16:33:23;17.50;99.90
4604;DHT22;2314;48.272;11.562;2023-10-09T16:35:51;17.50;99.90
4604;DHT22;2314;48.272;11.562;2023-10-09T16:38:20;17.40;99.90
4604;DHT22;2314;48.272;11.562;2023-10-09T16:40:54;17.40;99.90
4604;DHT22;2314;48.272;11.562;2023-10-09T16:43:22;17.40;99.90
4604;DHT22;2314;48.272;11.562;2023-10-09T16:45:54;17.30;99.90
4604;DHT22;2314;48.272;11.562;2023-10-09T16:48:25;17.30;99.90
4604;DHT22;2314;48.272;11.562;2023-10-09T16:50:55;17.30;99.90
4604;DHT22;2314;48.272;11.562;2023-10-09T16:53:24;17.30;99.90
4604;DHT22;2314;48.272;11.562;2023-10-09T16:55:51;17.20;99.90
4604;DHT22;2314;48.272;11.562;2023-10-09T16:58:23;17.20;99.90
4604;DHT22;2314;48.272;11.562;2023-10-09T17:00:50;17.30;99.90
4604;DHT22;2314;48.272;11.562;2023-10-09T17:03:22;17.20;99.90
4604;DHT22;2314;48.272;11.562;2023-10-09T17:05:53;17.30;99.90
4604;DHT22;2314;48.272;11.562;2023-10-09T17:08:23;17.40;99.90
4604;DHT22;2314;48.272;11.562;2023-10-09T17:10:55;17.40;99.90
4604;DHT22;2314;48.272;11.562;2023-10-09T17:13:23;17.40;99.90
4604;DHT22;2314;48.272;11.562;2023-10-09T17:15:52;17.40;99.90
4604;DHT22;2314;48.272;11.562;2023-10-09T17:18:22;17.40;99.90
4604;DHT22;2314;48.272;11.562;2023-10-09T17:20:51;17.40;99.90
4604;DHT22;2314;48.272;11.562;2023-10-09T17:23:19;17.40;99.90
4604;DHT22;2314;48.272;11.562;2023-10-09T17:25:46;17.40;99.90
4604;DHT22;2314;48.272;11.562;2023-10-09T17:28:22;17.40;99.90
4604;DHT22;2314;48.272;11.562;2023-10-09T17:30:49;17.30;99.90
4604;DHT22;2314;48.272;11.562;2023-10-09T17:33:17;17.30;99.90
4604;DHT22;2314;48.272;11.562;2023-10-09T17:35:46;17.30;99.90
4604;DHT22;2314;48.272;11.562;2023-10-09T17:38:14;17.30;99.90
4604;DHT22;2314;48.272;11.562;2023-10-09T17:40:47;17.30;99.90
4604;DHT22;2314;48.272;11.562;2023-10-09T17:43:17;17.30;99.90
4604;DHT22;2314;48.272;11.562;2023-10-09T17:45:45;17.30;99.90
4604;DHT22;2314;48.272;11.562;2023-10-09T17:48:12;17.30;99.90
4604;DHT22;2314;48.272;11.562;2023-10-09T17:50:42;17.20;99.90
4604;DHT22;2314;48.272;11.562;2023-10-09T17:53:12;17.10;99.90
4604;DHT22;2314;48.272;11.562;2023-10-09T17:55:39;17.10;99.90